Time;durP1;ratioP1;P1;durP2;ratioP2;P2;SDS_P1;SDS_P2;PMS_P1;PMS_P2;Temp;Humidity;BMP_temperature;BMP_pressure;BME280_temperature;BME280_humidity;BME280_pressure;Samples;Min_cycle;Max_cycle;Signal;HPM_P1;HPM_P2
2023/04/27 00:01:20;;;;;;;10.43;4.13;;;;;;;2.13;100.00;101810.28;7391990;19;20459;-38
2023/04/27 00:03:53;;;;;;;9.47;3.70;;;;;;;2.10;100.00;101820.22;7397782;19;20400;-37
2023/04/27 00:06:25;;;;;;;11.20;3.57;;;;;;;2.16;100.00;101808.06;7391421;19;20431;-37
2023/04/27 00:08:54;;;;;;;10.70;3.27;;;;;;;2.08;100.00;101804.78;7397181;19;20416;-37
2023/04/27 00:11:24;;;;;;;8.50;3.23;;;;;;;2.03;100.00;101806.00;7394818;19;20498;-39
2023/04/27 00:13:54;;;;;;;7.63;3.57;;;;;;;1.93;100.00;101809.34;7397224;19;20387;-38
2023/04/27 00:16:24;;;;;;;7.50;2.90;;;;;;;1.99;100.00;101804.81;7393876;19;20443;-38
2023/04/27 00:18:56;;;;;;;12.17;3.60;;;;;;;2.07;100.00;101800.44;7396906;19;20768;-40
2023/04/27 00:21:25;;;;;;;15.13;4.53;;;;;;;2.16;100.00;101800.41;7392178;19;20455;-37
2023/04/27 00:23:56;;;;;;;11.17;3.67;;;;;;;2.07;100.00;101797.91;7397029;19;20435;-42
2023/04/27 00:26:25;;;;;;;10.20;3.37;;;;;;;2.07;100.00;101797.00;7394277;19;20430;-37
2023/04/27 00:28:55;;;;;;;8.73;3.37;;;;;;;2.00;100.00;101791.34;7396839;19;20445;-40
2023/04/27 00:31:24;;;;;;;10.73;4.27;;;;;;;1.81;100.00;101787.81;7393585;19;20812;-40
2023/04/27 00:33:57;;;;;;;8.83;3.13;;;;;;;1.93;100.00;101783.88;7397118;19;20387;-37
2023/04/27 00:36:26;;;;;;;6.20;3.33;;;;;;;1.91;100.00;101793.03;7394717;19;20981;-37
2023/04/27 00:38:56;;;;;;;13.57;3.70;;;;;;;1.89;100.00;101785.25;7397380;19;20415;-37
2023/04/27 00:41:25;;;;;;;9.80;4.07;;;;;;;1.84;100.00;101780.50;7391961;19;20463;-37
2023/04/27 00:43:55;;;;;;;8.30;3.90;;;;;;;2.01;100.00;101782.94;7396915;19;20796;-39
2023/04/27 00:46:26;;;;;;;10.40;3.70;;;;;;;1.96;100.00;101780.72;7391554;19;20442;-38
2023/04/27 00:48:59;;;;;;;10.17;4.00;;;;;;;1.77;100.00;101771.38;7396272;19;20948;-37
2023/04/27 00:51:30;;;;;;;13.53;4.10;;;;;;;1.77;100.00;101778.09;7393143;19;20813;-37
2023/04/27 00:54:00;;;;;;;9.13;3.13;;;;;;;1.60;100.00;101782.53;7396148;19;20442;-41
2023/04/27 00:56:30;;;;;;;9.47;3.40;;;;;;;1.47;100.00;101780.44;7392756;19;21117;-38
2023/04/27 00:59:00;;;;;;;10.20;3.53;;;;;;;1.41;100.00;101780.78;7398167;19;20412;-37
2023/04/27 01:01:30;;;;;;;9.13;3.93;;;;;;;1.39;100.00;101772.09;7391205;19;20455;-37
2023/04/27 01:04:03;;;;;;;12.23;4.00;;;;;;;1.34;100.00;101765.69;7396328;19;20794;-38
2023/04/27 01:06:33;;;;;;;9.83;3.90;;;;;;;1.43;100.00;101753.81;7393182;19;20426;-40
2023/04/27 01:09:04;;;;;;;7.20;3.30;;;;;;;1.48;100.00;101752.63;7394423;19;20431;-38
2023/04/27 01:11:34;;;;;;;13.47;4.20;;;;;;;1.65;100.00;101745.69;7393179;19;20474;-38
2023/04/27 01:14:06;;;;;;;9.17;3.87;;;;;;;1.68;100.00;101745.06;7394115;19;20423;-39
2023/04/27 01:16:36;;;;;;;14.93;3.97;;;;;;;1.64;100.00;101748.97;7392250;19;20450;-38
2023/04/27 01:19:09;;;;;;;8.13;3.87;;;;;;;1.53;100.00;101744.53;7393378;19;20933;-37
2023/04/27 01:21:39;;;;;;;8.50;3.63;;;;;;;1.60;100.00;101746.91;7395278;19;21109;-39
2023/04/27 01:24:12;;;;;;;15.13;3.87;;;;;;;1.51;100.00;101735.84;7394615;19;20902;-37
2023/04/27 01:26:42;;;;;;;14.87;4.80;;;;;;;1.41;100.00;101735.00;7395577;19;20427;-37
2023/04/27 01:29:11;;;;;;;17.97;4.40;;;;;;;1.43;100.00;101745.31;7393787;19;20418;-38
2023/04/27 01:31:41;;;;;;;8.77;4.00;;;;;;;1.29;100.00;101749.09;7394659;19;20450;-46
2023/04/27 01:34:11;;;;;;;11.87;4.33;;;;;;;1.26;100.00;101743.69;7390104;19;20470;-38
2023/04/27 01:36:40;;;;;;;7.90;3.97;;;;;;;1.34;100.00;101732.63;7388861;19;20775;-38
2023/04/27 01:39:12;;;;;;;11.57;4.30;;;;;;;1.42;100.00;101729.16;7391792;19;20399;-38
2023/04/27 01:41:42;;;;;;;10.87;4.10;;;;;;;1.51;100.00;101728.22;7387181;19;20443;-38
2023/04/27 01:44:12;;;;;;;10.67;3.83;;;;;;;1.57;100.00;101728.78;7387745;19;20514;-38
2023/04/27 01:46:42;;;;;;;15.27;4.57;;;;;;;1.76;100.00;101723.78;7389708;19;20455;-38
2023/04/27 01:49:12;;;;;;;13.00;4.60;;;;;;;1.71;100.00;101725.91;7388136;19;20371;-38
2023/04/27 01:51:41;;;;;;;17.30;4.40;;;;;;;1.86;100.00;101730.63;7387757;19;20430;-39
2023/04/27 01:54:14;;;;;;;16.03;4.70;;;;;;;1.94;100.00;101726.25;7390642;19;20435;-40
2023/04/27 01:56:43;;;;;;;13.80;4.40;;;;;;;1.87;100.00;101743.50;7388387;19;20431;-39
2023/04/27 01:59:13;;;;;;;10.80;4.67;;;;;;;1.71;100.00;101748.81;7382782;19;20438;-37
2023/04/27 02:01:43;;;;;;;13.83;4.03;;;;;;;1.66;100.00;101757.66;7386781;19;20408;-37
2023/04/27 02:04:13;;;;;;;9.23;4.30;;;;;;;1.52;100.00;101757.97;7383579;19;20442;-36
2023/04/27 02:06:44;;;;;;;14.77;4.83;;;;;;;1.41;100.00;101750.25;7388380;19;20408;-39
2023/04/27 02:09:16;;;;;;;6.50;2.77;;;;;;;1.42;100.00;101746.94;7391329;19;20388;-37
2023/04/27 02:11:46;;;;;;;8.37;3.63;;;;;;;1.29;100.00;101744.88;7393758;19;20761;-38
2023/04/27 02:14:16;;;;;;;6.53;2.67;;;;;;;1.33;100.00;101733.38;7391048;19;20418;-38
2023/04/27 02:16:45;;;;;;;20.10;5.73;;;;;;;1.56;100.00;101704.09;7398612;19;20389;-40
2023/04/27 02:19:15;;;;;;;8.63;3.60;;;;;;;1.50;100.00;101698.44;7396076;19;20412;-36
2023/04/27 02:21:45;;;;;;;12.03;5.20;;;;;;;1.60;100.00;101675.66;7395665;19;20395;-39
2023/04/27 02:24:17;;;;;;;8.50;3.10;;;;;;;1.64;100.00;101671.75;7394577;19;20435;-37
2023/04/27 02:26:47;;;;;;;13.50;3.20;;;;;;;1.61;100.00;101672.34;7396334;19;20351;-39
2023/04/27 02:29:17;;;;;;;7.13;3.30;;;;;;;1.54;100.00;101664.91;7393373;19;20919;-38
2023/04/27 02:31:47;;;;;;;14.20;3.70;;;;;;;1.54;100.00;101659.84;7393019;19;20958;-39
2023/04/27 02:34:17;;;;;;;13.13;5.60;;;;;;;1.45;100.00;101649.69;7392602;19;20419;-39
2023/04/27 02:36:46;;;;;;;10.40;4.63;;;;;;;1.40;100.00;101641.66;7394087;19;20367;-39
2023/04/27 02:39:18;;;;;;;14.03;4.37;;;;;;;1.39;100.00;101628.78;7391693;19;20395;-37
2023/04/27 02:41:48;;;;;;;9.00;3.57;;;;;;;1.28;100.00;101620.16;7395399;19;20443;-39
2023/04/27 02:44:17;;;;;;;10.53;4.20;;;;;;;1.24;100.00;101613.91;7391099;19;20409;-39
2023/04/27 02:46:47;;;;;;;11.67;4.30;;;;;;;1.26;100.00;101599.66;7394846;19;20396;-41
2023/04/27 02:49:17;;;;;;;17.50;5.23;;;;;;;1.27;100.00;101593.81;7392084;19;20382;-39
2023/04/27 02:51:47;;;;;;;12.50;4.30;;;;;;;1.23;100.00;101590.84;7393885;19;20399;-38
2023/04/27 02:54:19;;;;;;;8.23;4.53;;;;;;;1.26;100.00;101569.16;7392926;19;20746;-41
2023/04/27 02:56:48;;;;;;;11.43;4.20;;;;;;;1.35;100.00;101571.66;7395450;19;20373;-39
2023/04/27 02:59:18;;;;;;;13.37;5.40;;;;;;;1.34;100.00;101562.25;7394355;19;20910;-39
2023/04/27 03:01:47;;;;;;;13.17;4.90;;;;;;;1.37;100.00;101557.41;7394002;19;20367;-39
2023/04/27 03:04:17;;;;;;;14.63;5.57;;;;;;;1.32;100.00;101551.00;7391750;19;20427;-38
2023/04/27 03:06:47;;;;;;;13.00;4.90;;;;;;;1.33;100.00;101552.81;7399298;19;20374;-38
2023/04/27 03:09:20;;;;;;;11.23;4.70;;;;;;;1.31;100.00;101549.22;7391921;19;20407;-39
2023/04/27 03:11:49;;;;;;;8.33;3.87;;;;;;;1.38;100.00;101546.47;7394396;19;20411;-39
2023/04/27 03:14:19;;;;;;;13.40;4.10;;;;;;;1.46;100.00;101544.66;7391471;19;20410;-40
2023/04/27 03:16:48;;;;;;;20.40;4.70;;;;;;;1.39;100.00;101548.28;7393001;19;20396;-38
2023/04/27 03:19:18;;;;;;;10.70;4.40;;;;;;;1.48;100.00;101543.13;7394690;19;20404;-38
2023/04/27 03:21:48;;;;;;;12.37;5.10;;;;;;;1.36;100.00;101540.38;7393234;19;20380;-40
2023/04/27 03:24:20;;;;;;;11.70;5.60;;;;;;;1.46;100.00;101540.47;7391435;19;20419;-39
2023/04/27 03:26:50;;;;;;;15.33;4.40;;;;;;;1.55;100.00;101534.41;7394431;19;20435;-39
2023/04/27 03:29:20;;;;;;;12.43;4.70;;;;;;;1.56;100.00;101536.22;7396176;19;20406;-38
2023/04/27 03:31:49;;;;;;;19.87;4.97;;;;;;;1.69;100.00;101533.13;7393184;19;20404;-42
2023/04/27 03:34:20;;;;;;;9.87;4.50;;;;;;;1.93;100.00;101534.44;7393550;19;20443;-38
2023/04/27 03:36:50;;;;;;;10.50;4.63;;;;;;;1.79;100.00;101542.50;7393913;19;20364;-39
2023/04/27 03:39:22;;;;;;;14.13;4.90;;;;;;;1.71;100.00;101545.25;7390209;19;20428;-39
2023/04/27 03:41:51;;;;;;;12.47;4.60;;;;;;;1.62;100.00;101546.94;7392288;19;20391;-38
2023/04/27 03:44:23;;;;;;;13.50;4.73;;;;;;;1.65;100.00;101552.31;7391187;19;20431;-40
2023/04/27 03:46:52;;;;;;;11.17;4.77;;;;;;;1.54;100.00;101563.16;7393543;19;20408;-41
2023/04/27 03:49:22;;;;;;;9.20;4.33;;;;;;;1.48;100.00;101563.47;7392363;19;20458;-38
2023/04/27 03:51:52;;;;;;;11.70;5.17;;;;;;;1.56;100.00;101566.72;7392285;19;20395;-39
2023/04/27 03:54:24;;;;;;;14.90;7.00;;;;;;;1.63;100.00;101569.06;7392800;19;20443;-38
2023/04/27 03:56:54;;;;;;;10.83;4.50;;;;;;;1.53;100.00;101572.44;7395255;19;20747;-39
2023/04/27 03:59:24;;;;;;;10.10;4.53;;;;;;;1.27;100.00;101576.03;7390160;19;21112;-39
2023/04/27 04:01:53;;;;;;;9.77;4.37;;;;;;;1.13;100.00;101581.47;7392188;19;20375;-42
2023/04/27 04:04:23;;;;;;;13.37;4.80;;;;;;;1.04;100.00;101581.53;7390378;19;20423;-39
2023/04/27 04:06:53;;;;;;;7.77;4.53;;;;;;;0.99;100.00;101572.56;7395074;19;20735;-38
2023/04/27 04:09:25;;;;;;;8.73;4.90;;;;;;;1.00;100.00;101570.16;7389025;19;20395;-39
2023/04/27 04:11:55;;;;;;;19.50;5.77;;;;;;;1.09;100.00;101567.59;7394151;19;20385;-40
2023/04/27 04:14:24;;;;;;;9.63;3.73;;;;;;;1.13;100.00;101564.56;7389877;19;20417;-37
2023/04/27 04:16:54;;;;;;;13.37;5.13;;;;;;;1.03;100.00;101577.19;7392388;19;20400;-38
2023/04/27 04:19:24;;;;;;;14.57;5.30;;;;;;;1.05;100.00;101581.66;7390144;19;20736;-39
2023/04/27 04:21:55;;;;;;;11.50;4.43;;;;;;;1.15;100.00;101579.97;7391821;19;20378;-39
2023/04/27 04:24:28;;;;;;;10.10;4.20;;;;;;;1.38;100.00;101577.00;7391217;19;20427;-40
2023/04/27 04:26:57;;;;;;;11.60;4.70;;;;;;;1.40;100.00;101583.16;7392117;19;20738;-39
2023/04/27 04:29:27;;;;;;;11.53;4.13;;;;;;;1.53;100.00;101582.59;7387451;19;20391;-38
2023/04/27 04:31:58;;;;;;;14.87;7.67;;;;;;;1.61;100.00;101585.88;7392449;19;20392;-40
2023/04/27 04:34:28;;;;;;;9.87;4.27;;;;;;;1.65;100.00;101582.84;7390159;19;20395;-39
2023/04/27 04:36:57;;;;;;;19.83;7.73;;;;;;;1.65;100.00;101582.84;7391723;19;20379;-38
2023/04/27 04:39:32;;;;;;;14.90;5.57;;;;;;;1.62;100.00;101574.94;7391291;19;20379;-39
2023/04/27 04:42:02;;;;;;;12.90;6.00;;;;;;;1.57;100.00;101571.97;7391351;19;20383;-39
2023/04/27 04:44:32;;;;;;;11.70;4.63;;;;;;;1.52;100.00;101577.38;7388568;19;20771;-38
2023/04/27 04:47:02;;;;;;;15.70;4.90;;;;;;;1.57;100.00;101578.69;7392500;19;20409;-39
2023/04/27 04:49:32;;;;;;;9.70;4.17;;;;;;;1.58;100.00;101575.38;7389379;19;20388;-39
2023/04/27 04:52:02;;;;;;;9.83;3.60;;;;;;;1.56;100.00;101580.38;7391166;19;20378;-38
2023/04/27 04:54:35;;;;;;;9.63;4.27;;;;;;;1.61;100.00;101584.22;7389411;19;20423;-40
2023/04/27 04:57:06;;;;;;;8.80;3.93;;;;;;;1.59;100.00;101587.38;7392903;19;20383;-38
2023/04/27 04:59:36;;;;;;;12.70;5.10;;;;;;;1.57;100.00;101587.22;7388960;19;20470;-39
2023/04/27 05:02:05;;;;;;;11.63;5.43;;;;;;;1.69;100.00;101589.13;7391214;19;20396;-38
2023/04/27 05:04:35;;;;;;;10.87;4.70;;;;;;;1.67;100.00;101595.69;7385820;19;20397;-38
2023/04/27 05:07:05;;;;;;;7.07;3.60;;;;;;;1.65;100.00;101595.56;7391038;19;20398;-39
2023/04/27 05:09:37;;;;;;;11.50;5.20;;;;;;;1.69;100.00;101597.63;7387480;19;20990;-38
2023/04/27 05:12:08;;;;;;;9.40;4.60;;;;;;;1.75;100.00;101598.19;7386147;19;20447;-39
2023/04/27 05:14:37;;;;;;;14.40;6.43;;;;;;;1.85;100.00;101604.13;7392144;19;20427;-38
2023/04/27 05:17:07;;;;;;;9.60;3.43;;;;;;;1.77;100.00;101603.41;7393772;19;20383;-38
2023/04/27 05:19:38;;;;;;;11.13;4.47;;;;;;;1.85;100.00;101606.66;7391265;19;20411;-40
2023/04/27 05:22:08;;;;;;;13.80;5.23;;;;;;;1.82;100.00;101609.81;7393590;19;20407;-38
2023/04/27 05:24:40;;;;;;;13.60;4.87;;;;;;;1.85;100.00;101611.75;7390223;19;20411;-39
2023/04/27 05:27:10;;;;;;;10.87;4.30;;;;;;;1.88;100.00;101610.38;7394598;19;20465;-40
2023/04/27 05:29:39;;;;;;;11.17;5.80;;;;;;;2.00;100.00;101610.59;7390489;19;20391;-38
2023/04/27 05:32:09;;;;;;;10.00;4.80;;;;;;;2.06;100.00;101606.81;7393027;19;20720;-37
2023/04/27 05:34:39;;;;;;;13.93;4.13;;;;;;;2.13;100.00;101619.31;7390352;19;20382;-40
2023/04/27 05:37:10;;;;;;;10.20;4.77;;;;;;;2.32;100.00;101610.78;7393190;19;20410;-39
2023/04/27 05:39:43;;;;;;;11.57;4.30;;;;;;;2.30;100.00;101608.09;7389936;19;20404;-39
2023/04/27 05:42:13;;;;;;;13.23;5.00;;;;;;;2.40;100.00;101617.44;7393082;19;20391;-39
2023/04/27 05:44:42;;;;;;;10.50;4.70;;;;;;;2.33;100.00;101623.66;7390480;19;20411;-39
2023/04/27 05:47:12;;;;;;;14.73;5.17;;;;;;;2.43;100.00;101625.38;7392687;19;20419;-40
2023/04/27 05:49:41;;;;;;;10.23;3.87;;;;;;;2.40;100.00;101632.72;7392229;19;20386;-40
2023/04/27 05:52:11;;;;;;;8.90;4.13;;;;;;;2.56;100.00;101630.78;7392316;19;20403;-38
2023/04/27 05:54:48;;;;;;;11.67;4.93;;;;;;;2.56;100.00;101640.97;7390507;19;20973;-39
2023/04/27 05:57:18;;;;;;;10.43;3.93;;;;;;;2.57;100.00;101644.44;7390647;19;20449;-38
2023/04/27 05:59:47;;;;;;;13.40;4.23;;;;;;;2.69;100.00;101650.63;7387890;19;20415;-40
2023/04/27 06:02:17;;;;;;;13.00;4.10;;;;;;;2.80;100.00;101673.59;7394337;19;20387;-39
2023/04/27 06:04:47;;;;;;;12.90;4.17;;;;;;;2.96;100.00;101670.72;7387013;19;20403;-39
2023/04/27 06:07:17;;;;;;;12.33;3.13;;;;;;;2.97;100.00;101687.81;7389726;19;20455;-37
2023/04/27 06:09:49;;;;;;;12.40;4.53;;;;;;;3.07;100.00;101692.03;7386936;19;20419;-41
2023/04/27 06:12:19;;;;;;;9.20;3.97;;;;;;;3.06;100.00;101703.91;7389196;19;20395;-38
2023/04/27 06:14:48;;;;;;;8.17;3.97;;;;;;;3.13;100.00;101709.56;7386908;19;20842;-39
2023/04/27 06:17:18;;;;;;;7.80;3.63;;;;;;;3.18;100.00;101719.38;7388699;19;20388;-38
2023/04/27 06:19:47;;;;;;;11.60;3.90;;;;;;;3.27;100.00;101732.03;7384646;19;20432;-39
2023/04/27 06:22:17;;;;;;;7.97;3.43;;;;;;;3.33;100.00;101740.22;7388620;19;20383;-39
2023/04/27 06:24:49;;;;;;;8.20;4.27;;;;;;;3.52;100.00;101744.38;7386623;19;20435;-40
2023/04/27 06:27:18;;;;;;;8.17;3.60;;;;;;;3.60;100.00;101760.34;7388777;19;20374;-38
2023/04/27 06:29:48;;;;;;;5.20;2.67;;;;;;;3.55;100.00;101776.94;7386298;19;20427;-40
2023/04/27 06:32:18;;;;;;;8.60;3.87;;;;;;;3.67;100.00;101792.41;7388381;19;20407;-39
2023/04/27 06:34:47;;;;;;;10.47;4.20;;;;;;;3.70;100.00;101806.31;7386131;19;20398;-38
2023/04/27 06:37:17;;;;;;;14.43;4.10;;;;;;;3.92;100.00;101831.16;7388974;19;20404;-39
2023/04/27 06:39:52;;;;;;;13.63;4.43;;;;;;;4.10;100.00;101847.16;7386712;19;20399;-37
2023/04/27 06:42:21;;;;;;;14.30;4.90;;;;;;;4.28;100.00;101873.41;7387836;19;20382;-37
2023/04/27 06:44:51;;;;;;;17.03;4.23;;;;;;;4.32;100.00;101908.66;7382811;19;20848;-39
2023/04/27 06:47:21;;;;;;;13.83;3.67;;;;;;;4.38;100.00;101955.94;7388069;19;20407;-40
2023/04/27 06:49:50;;;;;;;19.23;3.43;;;;;;;4.34;100.00;102016.13;7385928;19;20823;-38
2023/04/27 06:52:20;;;;;;;5.53;3.10;;;;;;;4.32;100.00;102061.09;7387394;19;20869;-38
2023/04/27 06:54:52;;;;;;;7.20;3.27;;;;;;;4.43;100.00;102098.72;7391998;19;20422;-38
2023/04/27 06:57:22;;;;;;;9.63;2.90;;;;;;;4.47;100.00;102143.34;7393449;19;20374;-38
2023/04/27 06:59:52;;;;;;;8.07;3.30;;;;;;;4.55;100.00;102182.34;7396938;19;20796;-40
2023/04/27 07:02:22;;;;;;;7.30;2.23;;;;;;;4.58;100.00;102226.97;7395417;19;20525;-38
2023/04/27 07:04:53;;;;;;;45.77;11.50;;;;;;;4.81;100.00;102252.81;7391963;19;20407;-37
2023/04/27 07:07:23;;;;;;;15.83;5.80;;;;;;;4.83;100.00;102272.63;7394934;19;20383;-37
2023/04/27 07:09:55;;;;;;;15.93;4.40;;;;;;;4.97;100.00;102278.13;7391837;19;20944;-39
2023/04/27 07:12:25;;;;;;;10.80;3.40;;;;;;;5.05;100.00;102292.47;7394188;19;20953;-41
2023/04/27 07:14:54;;;;;;;17.60;5.87;;;;;;;5.07;100.00;102300.28;7396030;19;20454;-38
2023/04/27 07:17:24;;;;;;;17.93;5.00;;;;;;;5.36;100.00;102299.38;7395452;19;20383;-38
2023/04/27 07:19:54;;;;;;;9.90;2.80;;;;;;;5.34;100.00;102295.81;7392787;19;20482;-38
2023/04/27 07:22:23;;;;;;;62.87;22.23;;;;;;;6.42;100.00;102309.25;7394547;19;20399;-39
2023/04/27 07:24:55;;;;;;;15.00;4.77;;;;;;;6.19;100.00;102297.06;7392861;19;21167;-38
2023/04/27 07:27:25;;;;;;;12.40;4.13;;;;;;;5.83;100.00;102280.34;7395121;19;20421;-39
2023/04/27 07:29:55;;;;;;;21.17;5.93;;;;;;;6.05;100.00;102271.16;7386581;19;20966;-38
2023/04/27 07:32:25;;;;;;;30.00;9.50;;;;;;;6.18;100.00;102261.94;7398287;19;20403;-39
2023/04/27 07:34:57;;;;;;;18.23;7.13;;;;;;;6.12;100.00;102259.78;7392310;19;20423;-39
2023/04/27 07:37:27;;;;;;;10.70;3.10;;;;;;;5.96;100.00;102255.00;7395940;19;20773;-42
2023/04/27 07:40:01;;;;;;;20.07;6.27;;;;;;;5.74;100.00;102240.34;7391572;19;20422;-38
2023/04/27 07:42:31;;;;;;;12.33;3.17;;;;;;;5.76;100.00;102220.91;7394128;19;20399;-40
2023/04/27 07:45:00;;;;;;;50.37;10.27;;;;;;;5.85;100.00;102189.16;7391771;19;20411;-38
2023/04/27 07:47:33;;;;;;;9.70;2.00;;;;;;;6.01;100.00;102181.94;7393911;19;20419;-38
2023/04/27 07:50:05;;;;;;;21.53;6.57;;;;;;;6.02;100.00;102173.56;7391651;19;20419;-38
2023/04/27 07:52:34;;;;;;;6.33;2.10;;;;;;;6.06;100.00;102162.78;7393107;19;20404;-40
2023/04/27 07:55:08;;;;;;;11.93;3.60;;;;;;;6.23;100.00;102153.03;7388751;19;20407;-37
2023/04/27 07:57:38;;;;;;;6.60;3.17;;;;;;;6.29;100.00;102143.28;7393431;19;20388;-42
2023/04/27 08:00:10;;;;;;;5.03;2.47;;;;;;;6.38;100.00;102103.75;7390782;19;20758;-38
2023/04/27 08:02:39;;;;;;;4.80;2.07;;;;;;;6.38;100.00;102078.13;7394559;19;21015;-38
2023/04/27 08:05:10;;;;;;;5.50;2.30;;;;;;;6.22;100.00;102051.28;7387990;19;20435;-37
2023/04/27 08:07:41;;;;;;;8.77;2.53;;;;;;;6.24;100.00;102052.28;7393536;19;20395;-38
2023/04/27 08:10:16;;;;;;;6.87;2.53;;;;;;;6.07;100.00;102033.88;7392801;19;20412;-38
2023/04/27 08:12:46;;;;;;;5.33;2.10;;;;;;;6.46;100.00;102028.38;7392754;19;20383;-39
2023/04/27 08:15:15;;;;;;;32.77;7.70;;;;;;;6.48;100.00;102003.72;7391323;19;20429;-38
2023/04/27 08:17:46;;;;;;;12.73;4.07;;;;;;;6.40;100.00;101940.72;7397791;19;20404;-38
2023/04/27 08:20:15;;;;;;;5.73;2.40;;;;;;;6.22;100.00;101897.50;7390948;19;20762;-39
2023/04/27 08:22:45;;;;;;;8.03;3.50;;;;;;;6.07;100.00;101944.19;7394402;19;20388;-38
2023/04/27 08:25:17;;;;;;;9.13;3.33;;;;;;;5.97;100.00;101966.38;7389709;19;20423;-38
2023/04/27 08:27:47;;;;;;;8.20;2.37;;;;;;;5.85;100.00;101963.72;7393227;19;20407;-37
2023/04/27 08:30:18;;;;;;;6.40;2.53;;;;;;;5.67;100.00;101966.59;7387737;19;20411;-38
2023/04/27 08:32:47;;;;;;;9.73;3.10;;;;;;;5.89;100.00;101984.59;7392565;19;20395;-38
2023/04/27 08:35:17;;;;;;;16.40;2.80;;;;;;;6.13;100.00;101979.66;7390601;19;20435;-38
2023/04/27 08:37:46;;;;;;;12.00;3.80;;;;;;;6.18;100.00;101967.22;7392355;19;20440;-38
2023/04/27 08:40:19;;;;;;;4.43;2.33;;;;;;;6.24;100.00;101967.69;7391676;19;20443;-40
2023/04/27 08:42:56;;;;;;;6.70;2.70;;;;;;;6.26;100.00;101937.94;7392076;19;20388;-37
2023/04/27 08:45:26;;;;;;;22.57;7.50;;;;;;;6.31;100.00;101920.38;7389675;19;20423;-38
2023/04/27 08:47:55;;;;;;;10.63;3.50;;;;;;;6.75;100.00;101932.25;7392898;19;20411;-42
2023/04/27 08:50:26;;;;;;;12.37;3.80;;;;;;;7.20;100.00;101878.25;7389695;19;20422;-39
2023/04/27 08:52:55;;;;;;;7.57;3.03;;;;;;;7.57;100.00;101783.31;7391975;19;20416;-39
2023/04/27 08:55:28;;;;;;;16.80;5.60;;;;;;;7.51;100.00;101682.72;7391348;19;20426;-40
2023/04/27 08:58:00;;;;;;;4.53;2.50;;;;;;;7.35;100.00;101648.31;7392067;19;20403;-39
2023/04/27 09:00:40;;;;;;;24.17;5.10;;;;;;;7.25;100.00;101622.75;7389794;19;20799;-38
2023/04/27 09:03:10;;;;;;;11.20;2.83;;;;;;;6.99;100.00;101532.03;7392223;19;20391;-41
2023/04/27 09:05:47;;;;;;;11.03;3.50;;;;;;;6.80;100.00;101433.28;7389136;19;20986;-39
2023/04/27 09:08:43;;;;;;;6.33;2.37;;;;;;;6.74;100.00;101361.06;7393526;19;20775;-39
2023/04/27 09:11:15;;;;;;;7.83;2.30;;;;;;;6.75;100.00;101347.44;7389424;19;20415;-39
2023/04/27 09:13:46;;;;;;;21.07;5.77;;;;;;;6.80;100.00;101324.66;7391752;19;20992;-38
2023/04/27 09:16:16;;;;;;;63.00;17.00;;;;;;;6.77;100.00;101333.03;7390796;19;20463;-44
2023/04/27 09:18:45;;;;;;;10.13;3.23;;;;;;;6.80;100.00;101312.75;7394112;19;20395;-39
2023/04/27 09:21:23;;;;;;;6.90;2.27;;;;;;;6.78;100.00;101327.16;7387858;19;20452;-40
2023/04/27 09:23:54;;;;;;;4.67;2.17;;;;;;;7.03;100.00;101326.19;7391906;19;21263;-38
2023/04/27 09:26:27;;;;;;;8.53;2.27;;;;;;;7.41;100.00;101335.47;7388832;19;20443;-40
2023/04/27 09:28:58;;;;;;;6.57;2.13;;;;;;;7.79;100.00;101324.97;7390552;19;20817;-38
2023/04/27 09:31:33;;;;;;;6.93;3.00;;;;;;;8.00;100.00;101291.97;7387476;19;20982;-39
2023/04/27 09:34:03;;;;;;;41.23;13.60;;;;;;;7.91;100.00;101294.88;7395185;19;20379;-41
2023/04/27 09:36:33;;;;;;;11.27;4.17;;;;;;;7.48;100.00;101292.22;7387566;19;20419;-39
2023/04/27 09:39:04;;;;;;;7.73;3.30;;;;;;;7.43;100.00;101287.69;7392175;19;20383;-39
2023/04/27 09:41:37;;;;;;;4.20;2.00;;;;;;;7.25;100.00;101276.25;7385987;19;20415;-38
2023/04/27 09:44:07;;;;;;;11.70;4.30;;;;;;;7.37;100.00;101282.16;7395079;19;20403;-37
2023/04/27 09:46:37;;;;;;;9.57;3.20;;;;;;;7.36;100.00;101259.84;7386237;19;20431;-38
2023/04/27 09:49:07;;;;;;;3.33;1.60;;;;;;;7.10;100.00;101220.59;7390972;19;20753;-38
2023/04/27 09:51:36;;;;;;;4.53;2.10;;;;;;;7.05;100.00;101223.63;7386559;19;20419;-38
2023/04/27 09:54:06;;;;;;;10.00;2.37;;;;;;;7.14;100.00;101237.06;7390150;19;20392;-37
2023/04/27 09:56:53;;;;;;;9.13;2.20;;;;;;;7.35;100.00;101245.25;7386395;19;20430;-38
2023/04/27 09:59:36;;;;;;;9.00;2.50;;;;;;;7.63;100.00;101213.56;7383955;19;20387;-38
2023/04/27 10:02:06;;;;;;;15.50;3.90;;;;;;;7.76;100.00;101189.50;7389901;19;20400;-38
2023/04/27 10:05:10;;;;;;;3.87;1.37;;;;;;;7.63;100.00;101176.72;7382614;19;20437;-38
2023/04/27 10:07:41;;;;;;;6.53;2.07;;;;;;;7.56;100.00;101189.19;7392190;19;20424;-39
2023/04/27 10:10:19;;;;;;;4.27;1.90;;;;;;;7.62;100.00;101185.19;7381914;19;20427;-37
2023/04/27 10:13:02;;;;;;;5.43;2.00;;;;;;;7.55;100.00;101192.53;7390327;19;20487;-39
2023/04/27 10:15:32;;;;;;;6.60;2.07;;;;;;;7.69;100.00;101208.78;7381885;19;20435;-38
2023/04/27 10:18:07;;;;;;;4.33;2.23;;;;;;;7.82;100.00;101204.38;7389659;19;20739;-38
2023/04/27 10:20:39;;;;;;;7.23;2.50;;;;;;;8.04;100.00;101208.22;7387590;19;20429;-39
2023/04/27 10:23:08;;;;;;;5.07;1.70;;;;;;;8.24;100.00;101230.88;7389397;19;20797;-39
2023/04/27 10:25:42;;;;;;;5.40;2.47;;;;;;;8.19;100.00;101257.09;7371930;19;21100;-38
2023/04/27 10:28:20;;;;;;;6.03;2.17;;;;;;;8.17;100.00;101263.84;7391397;19;21021;-39
2023/04/27 10:30:50;;;;;;;3.83;1.87;;;;;;;8.36;100.00;101276.13;7391492;19;20427;-38
2023/04/27 10:33:21;;;;;;;4.17;2.30;;;;;;;8.40;100.00;101285.75;7395768;19;20395;-38
2023/04/27 10:35:59;;;;;;;7.53;2.30;;;;;;;8.27;100.00;101326.97;7391800;19;20439;-39
2023/04/27 10:38:31;;;;;;;7.30;1.90;;;;;;;8.44;100.00;101287.72;7395334;19;20387;-38
2023/04/27 10:41:04;;;;;;;6.57;2.20;;;;;;;8.27;100.00;101297.03;7389827;19;20462;-42
2023/04/27 10:43:37;;;;;;;5.17;2.40;;;;;;;8.17;100.00;101295.59;7396943;19;20417;-41
2023/04/27 10:46:11;;;;;;;7.33;2.63;;;;;;;8.04;100.00;101293.03;7394159;19;20419;-40
2023/04/27 10:48:42;;;;;;;8.40;2.43;;;;;;;7.92;100.00;101281.25;7394812;19;21007;-38
2023/04/27 10:51:12;;;;;;;4.50;2.20;;;;;;;7.77;100.00;101270.91;7391610;19;20421;-38
2023/04/27 10:53:41;;;;;;;6.13;2.13;;;;;;;7.63;100.00;101275.19;7396798;19;20930;-38
2023/04/27 10:56:11;;;;;;;41.97;18.97;;;;;;;8.46;100.00;101254.41;7391973;19;20554;-41
2023/04/27 10:58:44;;;;;;;23.17;10.13;;;;;;;8.24;100.00;101258.25;7394092;19;20387;-38
2023/04/27 11:01:26;;;;;;;10.20;2.47;;;;;;;7.58;100.00;101268.88;7369643;19;20434;-39
2023/04/27 11:03:59;;;;;;;34.80;17.10;;;;;;;7.63;100.00;101253.78;7394221;19;20452;-38
2023/04/27 11:06:30;;;;;;;4.90;2.37;;;;;;;7.63;100.00;101259.78;7392219;19;20484;-39
2023/04/27 11:09:00;;;;;;;7.60;2.47;;;;;;;8.01;100.00;101244.94;7393684;19;20391;-40
2023/04/27 11:11:30;;;;;;;6.10;2.73;;;;;;;8.34;100.00;101249.41;7392209;19;20419;-40
2023/04/27 11:14:03;;;;;;;43.50;20.53;;;;;;;8.34;100.00;101257.13;7393797;19;20387;-39
2023/04/27 11:16:33;;;;;;;28.67;12.73;;;;;;;8.41;100.00;101248.09;7392169;19;20440;-38
2023/04/27 11:19:06;;;;;;;34.93;15.67;;;;;;;8.51;100.00;101256.44;7397559;19;20403;-40
2023/04/27 11:21:36;;;;;;;23.67;11.47;;;;;;;8.72;100.00;101260.19;7392288;19;20795;-43
2023/04/27 11:24:07;;;;;;;7.50;4.27;;;;;;;8.64;100.00;101259.75;7393668;19;20408;-38
2023/04/27 11:26:36;;;;;;;15.73;5.47;;;;;;;8.65;100.00;101258.94;7392237;19;20431;-39
2023/04/27 11:29:12;;;;;;;6.13;3.20;;;;;;;8.87;100.00;101257.59;7393696;19;20403;-37
2023/04/27 11:31:46;;;;;;;8.73;2.87;;;;;;;8.77;100.00;101262.22;7394916;19;20418;-39
2023/04/27 11:34:20;;;;;;;8.53;3.53;;;;;;;8.98;100.00;101260.78;7390889;19;20429;-36
2023/04/27 11:37:01;;;;;;;7.07;3.30;;;;;;;8.75;100.00;101256.09;7393642;19;20395;-39